createdAt,value
2018-11-05T00:00:37.483Z,46.20
2018-11-05T00:01:41.656Z,43.85
2018-11-05T00:02:46.083Z,45.38
2018-11-05T00:03:50.407Z,45.30
2018-11-05T00:04:54.523Z,44.80
2018-11-05T00:05:59.432Z,43.78
2018-11-05T00:07:03.711Z,43.70
2018-11-05T00:08:07.871Z,42.08
2018-11-05T00:09:13.396Z,44.48
2018-11-05T00:10:17.883Z,46.70
2018-11-05T00:11:22.282Z,49.70
2018-11-05T00:12:26.323Z,54.67
2018-11-05T00:13:30.582Z,51.02
2018-11-05T00:14:34.728Z,55.23
2018-11-05T00:15:38.913Z,52.33
2018-11-05T00:16:43.065Z,51.20
2018-11-05T00:17:47.179Z,48.80
2018-11-05T00:18:51.335Z,49.15
2018-11-05T00:19:55.605Z,54.85
2018-11-05T00:20:59.767Z,55.45
2018-11-05T00:22:04.169Z,52.62
2018-11-05T00:23:08.291Z,53.25
2018-11-05T00:24:12.525Z,52.93
2018-11-05T00:25:16.757Z,51.92
2018-11-05T00:26:20.838Z,51.48
2018-11-05T00:27:24.947Z,56.30
2018-11-05T00:28:28.971Z,53.23
2018-11-05T00:29:33.095Z,57.62
2018-11-05T00:30:37.224Z,55.43
2018-11-05T00:31:41.547Z,54.90
2018-11-05T00:32:45.622Z,49.90
2018-11-05T00:33:49.709Z,55.88
2018-11-05T00:34:53.797Z,53.85
2018-11-05T00:35:58.007Z,54.83
2018-11-05T00:37:02.447Z,59.15
2018-11-05T00:38:06.614Z,58.25
2018-11-05T00:39:12.391Z,51.65
2018-11-05T00:40:17.208Z,58.78
2018-11-05T00:41:21.298Z,55.73
2018-11-05T00:42:25.439Z,63.75
2018-11-05T00:43:29.443Z,56.42
2018-11-05T00:44:33.559Z,72.37
2018-11-05T00:45:38.175Z,70.15
2018-11-05T00:46:42.238Z,61.48
2018-11-05T00:47:46.261Z,58.48
2018-11-05T00:48:50.334Z,65.70
2018-11-05T00:49:55.184Z,72.10
2018-11-05T00:50:59.172Z,69.75
2018-11-05T00:52:03.312Z,70.47
2018-11-05T00:53:13.854Z,87.60
2018-11-05T00:54:17.923Z,87.15
2018-11-05T00:55:22.004Z,79.50
2018-11-05T00:56:26.267Z,67.20
2018-11-05T00:57:30.385Z,88.78
2018-11-05T00:58:34.544Z,78.95
2018-11-05T00:59:38.746Z,78.83
2018-11-05T01:00:48.071Z,103.50
2018-11-05T01:01:52.065Z,93.00
2018-11-05T01:02:57.302Z,90.22
2018-11-05T01:04:01.416Z,87.05
2018-11-05T01:05:07.239Z,91.67
2018-11-05T01:06:11.330Z,105.90
2018-11-05T01:07:15.854Z,103.97
2018-11-05T01:08:19.889Z,89.15
2018-11-05T01:09:24.042Z,94.45
2018-11-05T01:10:28.240Z,107.35
2018-11-05T01:11:32.425Z,86.53
2018-11-05T01:12:36.931Z,87.37
2018-11-05T01:13:41.113Z,94.50
2018-11-05T01:14:45.203Z,90.92
2018-11-05T01:15:49.482Z,94.67
2018-11-05T01:16:53.580Z,88.72
2018-11-05T01:17:57.819Z,85.15
2018-11-05T01:19:02.128Z,90.90
2018-11-05T01:20:07.048Z,88.20
2018-11-05T01:21:11.196Z,111.60
2018-11-05T01:22:15.305Z,95.40
2018-11-05T01:23:19.357Z,95.77
2018-11-05T01:24:23.515Z,98.87
2018-11-05T01:25:27.700Z,94.97
2018-11-05T01:26:31.751Z,111.65
2018-11-05T01:27:35.852Z,103.50
2018-11-05T01:28:39.918Z,107.72
2018-11-05T01:29:43.989Z,114.03
2018-11-05T01:30:49.184Z,96.40
2018-11-05T01:31:53.278Z,106.32
2018-11-05T01:32:57.287Z,109.57
2018-11-05T01:34:01.963Z,116.47
2018-11-05T01:35:07.315Z,109.80
2018-11-05T01:36:11.282Z,96.85
2018-11-05T01:37:15.931Z,85.80
2018-11-05T01:38:19.924Z,90.22
2018-11-05T01:39:24.104Z,94.80
2018-11-05T01:40:28.210Z,87.45
2018-11-05T01:41:32.267Z,91.70
2018-11-05T01:42:36.340Z,93.12
2018-11-05T01:43:40.471Z,95.75
2018-11-05T01:44:44.515Z,89.97
2018-11-05T01:45:48.734Z,98.45
2018-11-05T01:46:52.831Z,86.12
2018-11-05T01:47:56.835Z,89.58
2018-11-05T01:49:00.890Z,84.47
2018-11-05T01:50:05.267Z,91.63
2018-11-05T01:51:09.439Z,91.65
2018-11-05T01:52:13.897Z,92.27
2018-11-05T01:53:17.964Z,85.05
2018-11-05T01:54:21.997Z,96.50
2018-11-05T01:55:26.153Z,84.58
2018-11-05T01:56:30.231Z,90.80
2018-11-05T01:57:34.278Z,88.03
2018-11-05T01:58:38.329Z,94.77
2018-11-05T01:59:42.526Z,84.52
2018-11-05T02:00:46.640Z,89.10
2018-11-05T02:01:50.726Z,107.70
2018-11-05T02:02:54.707Z,93.75
2018-11-05T02:03:58.691Z,97.12
2018-11-05T02:05:02.735Z,87.20
2018-11-05T02:06:06.967Z,89.15
2018-11-05T02:07:11.145Z,92.90
2018-11-05T02:08:15.234Z,100.30
2018-11-05T02:09:19.264Z,86.90
2018-11-05T02:10:23.441Z,92.65
2018-11-05T02:11:27.487Z,90.67
2018-11-05T02:12:31.535Z,83.15
2018-11-05T02:13:35.653Z,99.22
2018-11-05T02:14:39.752Z,94.28
2018-11-05T02:15:43.775Z,107.20
2018-11-05T02:16:50.621Z,98.27
2018-11-05T02:17:54.654Z,98.10
2018-11-05T02:18:58.927Z,97.17
2018-11-05T02:20:02.996Z,96.65
2018-11-05T02:21:07.203Z,106.27
2018-11-05T02:22:11.524Z,112.88
2018-11-05T02:23:15.633Z,108.47
2018-11-05T02:24:19.698Z,96.53
2018-11-05T02:25:23.770Z,103.87
2018-11-05T02:26:27.802Z,97.02
2018-11-05T02:27:31.973Z,102.55
2018-11-05T02:28:36.108Z,100.55
2018-11-05T02:29:40.179Z,110.40
2018-11-05T02:30:44.286Z,105.32
2018-11-05T02:31:48.376Z,98.37
2018-11-05T02:32:52.460Z,101.38
2018-11-05T02:33:56.759Z,98.72
2018-11-05T02:35:00.844Z,105.03
2018-11-05T02:36:05.007Z,123.40
2018-11-05T02:37:09.182Z,110.70
2018-11-05T02:38:13.400Z,110.40
2018-11-05T02:39:17.525Z,111.68
2018-11-05T02:40:21.960Z,105.40
2018-11-05T02:41:26.041Z,100.60
2018-11-05T02:42:30.054Z,109.60
2018-11-05T02:43:34.119Z,108.60
2018-11-05T02:44:38.231Z,114.20
2018-11-05T02:45:42.447Z,114.37
2018-11-05T02:46:46.514Z,110.40
2018-11-05T02:47:50.615Z,104.80
2018-11-05T02:48:54.651Z,115.57
2018-11-05T02:49:58.717Z,115.67
2018-11-05T02:51:02.848Z,99.15
2018-11-05T02:52:07.012Z,100.18
2018-11-05T02:53:11.160Z,100.55
2018-11-05T02:54:15.198Z,99.28
2018-11-05T02:55:19.507Z,102.25
2018-11-05T02:56:23.583Z,115.28
2018-11-05T02:57:27.871Z,112.57
2018-11-05T02:58:32.003Z,103.90
2018-11-05T02:59:36.044Z,105.22
2018-11-05T03:00:40.403Z,108.52
2018-11-05T03:01:44.423Z,101.87
2018-11-05T03:02:48.533Z,106.55
2018-11-05T03:03:52.673Z,102.55
2018-11-05T03:04:56.715Z,99.75
2018-11-05T03:06:00.822Z,97.10
2018-11-05T03:07:05.096Z,96.53
2018-11-05T03:08:09.137Z,95.45
2018-11-05T03:09:13.743Z,89.47
2018-11-05T03:10:18.166Z,106.60
2018-11-05T03:11:22.246Z,101.25
2018-11-05T03:12:26.344Z,95.10
2018-11-05T03:13:30.476Z,108.78
2018-11-05T03:14:34.538Z,92.95
2018-11-05T03:15:38.560Z,96.60
2018-11-05T03:16:42.629Z,91.17
2018-11-05T03:17:46.658Z,86.85
2018-11-05T03:18:50.654Z,96.37
2018-11-05T03:19:54.635Z,86.82
2018-11-05T03:20:58.623Z,90.92
2018-11-05T03:22:02.652Z,101.80
2018-11-05T03:23:06.744Z,103.02
2018-11-05T03:24:10.744Z,111.22
2018-11-05T03:25:14.827Z,103.30
2018-11-05T03:26:18.848Z,100.07
2018-11-05T03:27:22.938Z,104.55
2018-11-05T03:28:26.996Z,107.32
2018-11-05T03:29:31.039Z,105.40
2018-11-05T03:30:35.115Z,113.60
2018-11-05T03:31:39.375Z,102.27
2018-11-05T03:32:44.452Z,106.87
2018-11-05T03:33:48.438Z,102.87
2018-11-05T03:34:52.437Z,107.43
2018-11-05T03:35:56.618Z,104.90
2018-11-05T03:37:00.552Z,106.80
2018-11-05T03:38:04.623Z,108.90
2018-11-05T03:39:10.864Z,105.17
2018-11-05T03:40:15.314Z,104.75
2018-11-05T03:41:19.267Z,92.30
2018-11-05T03:42:23.319Z,101.70
2018-11-05T03:43:27.412Z,88.72
2018-11-05T03:44:31.462Z,87.45
2018-11-05T03:45:35.540Z,92.95
2018-11-05T03:46:39.643Z,99.75
2018-11-05T03:47:43.965Z,93.75
2018-11-05T03:48:48.007Z,98.97
2018-11-05T03:49:52.022Z,93.42
2018-11-05T03:50:56.007Z,93.20
2018-11-05T03:52:01.020Z,90.47
2018-11-05T03:53:05.561Z,91.10
2018-11-05T03:54:09.747Z,90.40
2018-11-05T03:55:14.371Z,95.65
2018-11-05T03:56:18.511Z,98.72
2018-11-05T03:57:22.520Z,92.82
2018-11-05T03:58:26.651Z,95.83
2018-11-05T03:59:30.751Z,91.35
2018-11-05T04:00:34.999Z,100.92
2018-11-05T04:01:39.405Z,94.65
2018-11-05T04:02:43.519Z,96.85
2018-11-05T04:03:47.535Z,97.82
2018-11-05T04:04:51.678Z,95.77
2018-11-05T04:05:55.710Z,94.10
2018-11-05T04:06:59.739Z,95.22
2018-11-05T04:08:03.682Z,102.00
2018-11-05T04:09:10.559Z,93.10
2018-11-05T04:10:15.059Z,88.17
2018-11-05T04:11:19.091Z,93.78
2018-11-05T04:12:23.135Z,87.25
2018-11-05T04:13:27.231Z,90.30
2018-11-05T04:14:31.325Z,104.97
2018-11-05T04:15:35.576Z,101.02
2018-11-05T04:16:39.570Z,100.92
2018-11-05T04:17:43.562Z,94.62
2018-11-05T04:18:47.596Z,97.15
2018-11-05T04:19:51.769Z,111.08
2018-11-05T04:20:55.813Z,102.72
2018-11-05T04:21:59.802Z,95.77
2018-11-05T04:23:04.243Z,108.80
2018-11-05T04:24:09.145Z,101.45
2018-11-05T04:25:13.128Z,97.85
2018-11-05T04:26:17.270Z,110.03
2018-11-05T04:27:21.233Z,95.50
2018-11-05T04:28:25.203Z,104.43
2018-11-05T04:29:29.212Z,108.20
2018-11-05T04:30:33.355Z,97.65
2018-11-05T04:31:42.851Z,99.72
2018-11-05T04:32:46.943Z,103.90
2018-11-05T04:33:51.110Z,104.40
2018-11-05T04:34:55.304Z,108.92
2018-11-05T04:35:59.448Z,106.05
2018-11-05T04:37:03.577Z,107.75
2018-11-05T04:38:07.658Z,100.75
2018-11-05T04:39:13.655Z,108.75
2018-11-05T04:40:17.842Z,110.20
2018-11-05T04:41:21.888Z,109.52
2018-11-05T04:42:26.645Z,99.80
2018-11-05T04:43:30.626Z,107.90
2018-11-05T04:44:35.119Z,103.00
2018-11-05T04:45:39.548Z,102.55
2018-11-05T04:46:43.619Z,97.75
2018-11-05T04:47:48.275Z,110.28
2018-11-05T04:48:52.292Z,108.85
2018-11-05T04:49:56.358Z,106.05
2018-11-05T04:51:00.415Z,104.40
2018-11-05T04:52:04.441Z,104.23
2018-11-05T04:53:08.506Z,109.35
2018-11-05T04:54:12.781Z,119.80
2018-11-05T04:55:16.879Z,111.88
2018-11-05T04:56:20.950Z,117.85
2018-11-05T04:57:24.932Z,128.95
2018-11-05T04:58:29.056Z,119.72
2018-11-05T04:59:33.088Z,114.05
2018-11-05T05:00:37.310Z,121.60
2018-11-05T05:01:41.367Z,113.30
2018-11-05T05:02:45.514Z,124.07
2018-11-05T05:03:49.612Z,107.35
2018-11-05T05:04:53.768Z,116.82
2018-11-05T05:05:57.836Z,120.30
2018-11-05T05:07:01.842Z,127.42
2018-11-05T05:08:06.319Z,122.78
2018-11-05T05:09:12.315Z,120.20
2018-11-05T05:10:17.427Z,130.50
2018-11-05T05:11:21.513Z,120.72
2018-11-05T05:12:25.584Z,128.42
2018-11-05T05:13:29.642Z,115.95
2018-11-05T05:14:35.639Z,131.40
2018-11-05T05:15:39.696Z,127.07
2018-11-05T05:16:43.704Z,130.87
2018-11-05T05:17:48.205Z,124.47
2018-11-05T05:18:52.210Z,123.00
2018-11-05T05:19:56.298Z,101.85
2018-11-05T05:21:00.304Z,96.82
2018-11-05T05:22:04.359Z,96.87
2018-11-05T05:23:08.700Z,88.78
2018-11-05T05:24:12.636Z,109.67
2018-11-05T05:25:17.622Z,100.70
2018-11-05T05:26:21.650Z,104.15
2018-11-05T05:27:25.751Z,91.50
2018-11-05T05:28:30.195Z,93.90
2018-11-05T05:29:34.228Z,97.37
2018-11-05T05:30:38.404Z,83.85
2018-11-05T05:31:42.578Z,88.37
2018-11-05T05:32:47.846Z,91.35
2018-11-05T05:33:51.936Z,84.25
2018-11-05T05:34:56.193Z,97.97
2018-11-05T05:36:01.549Z,97.40
2018-11-05T05:37:05.670Z,98.40
2018-11-05T05:38:09.834Z,98.40
2018-11-05T05:39:14.016Z,111.88
2018-11-05T05:40:18.242Z,107.85
2018-11-05T05:41:22.514Z,92.95
2018-11-05T05:42:26.687Z,91.82
2018-11-05T05:43:30.774Z,95.45
2018-11-05T05:44:35.083Z,97.12
2018-11-05T05:45:39.550Z,112.60
2018-11-05T05:46:43.941Z,110.03
2018-11-05T05:47:48.043Z,104.97
2018-11-05T05:48:52.299Z,112.80
2018-11-05T05:49:56.682Z,114.82
2018-11-05T05:51:01.123Z,102.60
2018-11-05T05:52:05.800Z,91.25
2018-11-05T05:53:09.993Z,92.27
2018-11-05T05:54:14.167Z,112.68
2018-11-05T05:55:18.406Z,102.80
2018-11-05T05:56:22.543Z,105.25
2018-11-05T05:57:26.808Z,91.78
2018-11-05T05:58:31.122Z,87.90
2018-11-05T05:59:35.228Z,83.30
2018-11-05T06:00:39.403Z,88.95
2018-11-05T06:01:43.538Z,95.57
2018-11-05T06:02:47.809Z,87.65
2018-11-05T06:03:51.855Z,101.42
2018-11-05T06:04:56.397Z,104.05
2018-11-05T06:06:00.700Z,107.85
2018-11-05T06:07:06.243Z,107.07
2018-11-05T06:08:10.453Z,94.28
2018-11-05T06:09:14.545Z,87.92
2018-11-05T06:10:18.884Z,86.50
2018-11-05T06:11:23.123Z,94.30
2018-11-05T06:12:27.342Z,86.87
2018-11-05T06:13:31.538Z,98.75
2018-11-05T06:14:35.630Z,103.45
2018-11-05T06:15:39.891Z,93.17
2018-11-05T06:16:43.927Z,90.92
2018-11-05T06:17:48.105Z,91.15
2018-11-05T06:18:52.310Z,83.10
2018-11-05T06:19:56.536Z,81.08
2018-11-05T06:21:00.619Z,82.85
2018-11-05T06:22:04.708Z,88.20
2018-11-05T06:23:08.921Z,82.05
2018-11-05T06:24:13.031Z,84.17
2018-11-05T06:25:17.415Z,83.67
2018-11-05T06:26:21.491Z,72.15
2018-11-05T06:27:25.601Z,75.57
2018-11-05T06:28:29.855Z,67.87
2018-11-05T06:29:34.323Z,74.70
2018-11-05T06:30:38.483Z,70.28
2018-11-05T06:31:42.694Z,68.62
2018-11-05T06:32:47.792Z,70.03
2018-11-05T06:33:51.929Z,72.10
2018-11-05T06:34:56.083Z,80.12
2018-11-05T06:36:00.168Z,84.58
2018-11-05T06:37:04.367Z,86.22
2018-11-05T06:38:08.528Z,93.25
2018-11-05T06:39:13.606Z,87.05
2018-11-05T06:40:19.228Z,87.25
2018-11-05T06:41:24.470Z,87.53
2018-11-05T06:42:28.874Z,90.40
2018-11-05T06:43:32.993Z,82.15
2018-11-05T06:44:37.248Z,74.50
2018-11-05T06:45:41.523Z,74.32
2018-11-05T06:46:45.898Z,69.82
2018-11-05T06:47:55.536Z,64.12
2018-11-05T06:48:59.786Z,68.62
2018-11-05T06:50:05.376Z,62.88
2018-11-05T06:51:09.645Z,59.08
2018-11-05T06:52:14.106Z,71.85
2018-11-05T06:53:18.335Z,64.05
2018-11-05T06:54:22.725Z,65.97
2018-11-05T06:55:27.274Z,63.05
2018-11-05T06:56:31.369Z,70.78
2018-11-05T06:57:35.665Z,74.30
2018-11-05T06:58:39.838Z,69.22
2018-11-05T06:59:44.166Z,75.80
2018-11-05T07:00:48.530Z,72.50
2018-11-05T07:01:52.794Z,71.02
2018-11-05T07:02:57.107Z,70.75
2018-11-05T07:04:01.327Z,65.40
2018-11-05T07:05:05.885Z,80.47
2018-11-05T07:06:10.012Z,70.50
2018-11-05T07:07:14.301Z,76.72
2018-11-05T07:08:18.450Z,78.33
2018-11-05T07:09:22.617Z,72.05
2018-11-05T07:10:26.900Z,77.40
2018-11-05T07:11:31.235Z,67.00
2018-11-05T07:12:35.391Z,73.87
2018-11-05T07:13:39.633Z,71.02
2018-11-05T07:14:44.127Z,66.22
2018-11-05T07:15:48.334Z,65.70
2018-11-05T07:16:52.510Z,71.15
2018-11-05T07:17:56.752Z,75.37
2018-11-05T07:19:01.017Z,76.35
2018-11-05T07:20:06.115Z,69.70
2018-11-05T07:21:10.313Z,74.40
2018-11-05T07:22:14.627Z,79.82
2018-11-05T07:23:18.900Z,78.50
2018-11-05T07:24:23.152Z,72.27
2018-11-05T07:25:27.350Z,75.83
2018-11-05T07:26:31.604Z,74.17
2018-11-05T07:27:35.988Z,79.58
2018-11-05T07:28:40.355Z,87.85
2018-11-05T07:29:44.473Z,77.00
2018-11-05T07:30:48.567Z,82.35
2018-11-05T07:31:52.647Z,70.95
2018-11-05T07:32:56.757Z,65.20
2018-11-05T07:34:01.121Z,71.00
2018-11-05T07:35:05.903Z,72.45
2018-11-05T07:36:10.073Z,65.95
2018-11-05T07:37:14.261Z,67.22
2018-11-05T07:38:18.406Z,73.05
2018-11-05T07:39:22.635Z,67.80
2018-11-05T07:40:26.762Z,59.10
2018-11-05T07:41:30.984Z,66.87
2018-11-05T07:42:35.272Z,78.67
2018-11-05T07:43:39.409Z,74.37
2018-11-05T07:44:43.523Z,77.80
2018-11-05T07:45:47.632Z,67.20
2018-11-05T07:46:51.811Z,56.20
2018-11-05T07:47:56.133Z,62.80
2018-11-05T07:49:00.544Z,68.28
2018-11-05T07:50:05.576Z,61.48
2018-11-05T07:51:10.280Z,57.75
2018-11-05T07:52:14.637Z,71.00
2018-11-05T07:53:18.960Z,68.02
2018-11-05T07:54:23.178Z,65.37
2018-11-05T07:55:27.406Z,63.87
2018-11-05T07:56:31.666Z,71.42
2018-11-05T07:57:36.093Z,64.45
2018-11-05T07:58:40.149Z,65.72
2018-11-05T07:59:44.265Z,58.15
2018-11-05T08:00:49.562Z,55.58
2018-11-05T08:01:58.826Z,60.83
2018-11-05T08:03:03.082Z,58.75
2018-11-05T08:04:07.317Z,61.73
2018-11-05T08:05:11.505Z,62.15
2018-11-05T08:06:15.766Z,63.33
2018-11-05T08:07:19.809Z,58.87
2018-11-05T08:08:24.158Z,64.80
2018-11-05T08:09:28.295Z,66.65
2018-11-05T08:10:37.899Z,61.60
2018-11-05T08:11:42.236Z,69.53
2018-11-05T08:12:46.450Z,58.83
2018-11-05T08:13:50.483Z,61.70
2018-11-05T08:14:54.630Z,66.65
2018-11-05T08:15:58.845Z,67.20
2018-11-05T08:17:03.038Z,62.48
2018-11-05T08:18:07.312Z,66.17
2018-11-05T08:19:11.412Z,60.08
2018-11-05T08:20:15.639Z,67.62
2018-11-05T08:21:19.749Z,67.25
2018-11-05T08:22:24.084Z,60.20
2018-11-05T08:23:28.379Z,70.83
2018-11-05T08:24:32.694Z,68.92
2018-11-05T08:25:37.044Z,69.03
2018-11-05T08:26:41.335Z,76.15
2018-11-05T08:27:45.673Z,74.35
2018-11-05T08:28:54.848Z,67.40
2018-11-05T08:29:59.242Z,71.95
2018-11-05T08:31:03.451Z,69.80
2018-11-05T08:32:07.731Z,66.33
2018-11-05T08:33:12.157Z,69.65
2018-11-05T08:34:16.529Z,68.00
2018-11-05T08:35:20.852Z,65.17
2018-11-05T08:36:25.056Z,72.62
2018-11-05T08:37:29.348Z,64.30
2018-11-05T08:38:33.619Z,66.35
2018-11-05T08:39:37.838Z,62.73
2018-11-05T08:40:42.117Z,71.62
2018-11-05T08:41:46.260Z,68.33
2018-11-05T08:42:51.496Z,73.55
2018-11-05T08:43:55.799Z,69.53
2018-11-05T08:45:00.089Z,64.85
2018-11-05T08:46:04.566Z,71.97
2018-11-05T08:47:08.963Z,61.30
2018-11-05T08:48:13.320Z,63.45
2018-11-05T08:49:17.716Z,63.42
2018-11-05T08:50:23.031Z,68.62
2018-11-05T08:51:27.482Z,71.92
2018-11-05T08:52:31.547Z,77.32
2018-11-05T08:53:35.831Z,60.83
2018-11-05T08:54:40.143Z,65.97
2018-11-05T08:55:44.488Z,58.73
2018-11-05T08:56:48.679Z,68.78
2018-11-05T08:57:52.923Z,76.45
2018-11-05T08:58:57.252Z,86.57
2018-11-05T09:00:01.499Z,73.90
2018-11-05T09:01:11.295Z,92.27
2018-11-05T09:02:15.359Z,74.82
2018-11-05T09:03:19.494Z,74.12
2018-11-05T09:04:23.692Z,75.60
2018-11-05T09:05:27.910Z,62.10
2018-11-05T09:06:31.979Z,69.75
2018-11-05T09:07:36.268Z,68.95
2018-11-05T09:08:40.431Z,59.40
2018-11-05T09:09:44.509Z,64.65
2018-11-05T09:10:48.903Z,58.42
2018-11-05T09:11:52.784Z,55.90
2018-11-05T09:12:57.060Z,60.10
2018-11-05T09:14:01.321Z,66.05
2018-11-05T09:15:06.387Z,65.97
2018-11-05T09:16:10.768Z,53.65
2018-11-05T09:17:15.052Z,57.27
2018-11-05T09:18:19.419Z,59.25
2018-11-05T09:19:23.651Z,57.65
2018-11-05T09:20:27.979Z,57.33
2018-11-05T09:21:32.528Z,49.18
2018-11-05T09:22:37.237Z,57.48
2018-11-05T09:23:41.608Z,58.83
2018-11-05T09:24:45.926Z,56.58
2018-11-05T09:25:50.381Z,57.23
2018-11-05T09:26:54.692Z,60.23
2018-11-05T09:27:59.177Z,59.42
2018-11-05T09:29:03.507Z,67.35
2018-11-05T09:30:15.908Z,53.38
2018-11-05T09:31:20.216Z,58.42
2018-11-05T09:32:24.703Z,56.20
2018-11-05T09:33:28.932Z,54.15
2018-11-05T09:34:33.260Z,61.18
2018-11-05T09:35:37.486Z,55.15
2018-11-05T09:36:41.709Z,54.90
2018-11-05T09:37:46.004Z,55.78
2018-11-05T09:38:50.320Z,48.00
2018-11-05T09:39:54.507Z,52.38
2018-11-05T09:40:58.815Z,55.10
2018-11-05T09:42:03.192Z,56.15
2018-11-05T09:43:07.692Z,49.93
2018-11-05T09:44:11.955Z,52.20
2018-11-05T09:45:18.718Z,54.60
2018-11-05T09:46:23.089Z,51.20
2018-11-05T09:47:27.385Z,53.33
2018-11-05T09:48:31.627Z,55.63
2018-11-05T09:49:36.032Z,56.65
2018-11-05T09:50:40.312Z,53.87
2018-11-05T09:51:44.450Z,54.50
2018-11-05T09:52:48.659Z,52.20
2018-11-05T09:53:52.959Z,58.85
2018-11-05T09:54:57.325Z,61.73
2018-11-05T09:56:01.757Z,54.00
2018-11-05T09:57:06.119Z,54.50
2018-11-05T09:58:10.541Z,49.13
2018-11-05T09:59:14.802Z,52.83
2018-11-05T10:00:23.588Z,45.12
2018-11-05T10:01:28.063Z,48.17
2018-11-05T10:02:37.573Z,49.27
2018-11-05T10:03:47.174Z,54.58
2018-11-05T10:04:51.530Z,47.55
2018-11-05T10:05:55.560Z,52.55
2018-11-05T10:06:59.931Z,48.40
2018-11-05T10:08:04.168Z,54.08
2018-11-05T10:09:10.344Z,54.35
2018-11-05T10:10:15.732Z,57.00
2018-11-05T10:11:20.150Z,54.98
2018-11-05T10:12:25.618Z,59.83
2018-11-05T10:13:29.881Z,53.70
2018-11-05T10:14:34.229Z,47.03
2018-11-05T10:15:38.613Z,56.10
2018-11-05T10:16:42.944Z,56.18
2018-11-05T10:17:47.285Z,52.40
2018-11-05T10:18:51.612Z,48.85
2018-11-05T10:19:56.112Z,48.92
2018-11-05T10:21:00.759Z,50.70
2018-11-05T10:22:05.587Z,52.78
2018-11-05T10:23:09.840Z,50.85
2018-11-05T10:24:14.151Z,49.73
2018-11-05T10:25:18.954Z,47.17
2018-11-05T10:26:23.298Z,53.60
2018-11-05T10:27:27.878Z,50.00
2018-11-05T10:28:32.227Z,51.25
2018-11-05T10:29:36.591Z,47.03
2018-11-05T10:30:40.880Z,46.55
2018-11-05T10:31:45.248Z,48.38
2018-11-05T10:32:49.657Z,45.65
2018-11-05T10:33:53.957Z,49.55
2018-11-05T10:34:58.356Z,49.73
2018-11-05T10:36:02.674Z,48.85
2018-11-05T10:37:07.444Z,53.00
2018-11-05T10:38:11.784Z,48.42
2018-11-05T10:39:16.056Z,53.02
2018-11-05T10:40:20.593Z,49.55
2018-11-05T10:41:24.916Z,49.20
2018-11-05T10:42:29.286Z,58.35
2018-11-05T10:43:33.714Z,46.80
2018-11-05T10:44:38.024Z,45.20
2018-11-05T10:45:42.401Z,47.20
2018-11-05T10:46:46.715Z,45.48
2018-11-05T10:47:51.035Z,51.02
2018-11-05T10:48:55.271Z,53.25
2018-11-05T10:49:59.537Z,46.75
2018-11-05T10:51:03.936Z,49.23
2018-11-05T10:52:08.436Z,52.45
2018-11-05T10:53:12.768Z,51.60
2018-11-05T10:54:17.461Z,52.93
2018-11-05T10:55:21.897Z,47.25
2018-11-05T10:56:26.164Z,51.90
2018-11-05T10:57:31.127Z,52.25
2018-11-05T10:58:35.528Z,46.48
2018-11-05T10:59:39.911Z,47.10
2018-11-05T11:00:49.558Z,46.45
2018-11-05T11:01:58.986Z,49.40
2018-11-05T11:03:08.451Z,50.98
2018-11-05T11:04:17.884Z,44.45
2018-11-05T11:05:22.938Z,47.23
2018-11-05T11:06:27.434Z,39.60
2018-11-05T11:07:31.725Z,41.15
2018-11-05T11:08:36.208Z,46.45
2018-11-05T11:09:40.614Z,45.40
2018-11-05T11:10:44.893Z,51.85
2018-11-05T11:11:49.228Z,43.02
2018-11-05T11:12:53.548Z,46.42
2018-11-05T11:13:57.785Z,47.55
2018-11-05T11:15:02.202Z,49.20
2018-11-05T11:16:06.607Z,55.40
2018-11-05T11:17:11.017Z,47.25
2018-11-05T11:18:15.303Z,52.38
2018-11-05T11:19:19.575Z,42.95
2018-11-05T11:20:23.999Z,48.52
2018-11-05T11:21:28.480Z,43.15
2018-11-05T11:22:32.874Z,45.83
2018-11-05T11:23:37.238Z,42.58
2018-11-05T11:24:41.519Z,40.35
2018-11-05T11:25:47.967Z,46.05
2018-11-05T11:26:53.011Z,42.17
2018-11-05T11:27:58.750Z,42.73
2018-11-05T11:29:07.405Z,46.13
2018-11-05T11:30:14.943Z,39.13
2018-11-05T11:31:27.801Z,44.05
2018-11-05T11:32:34.049Z,43.70
2018-11-05T11:33:38.431Z,42.93
2018-11-05T11:34:42.629Z,41.95
2018-11-05T11:35:48.262Z,45.43
2018-11-05T11:36:52.805Z,46.50
2018-11-05T11:37:57.210Z,42.62
2018-11-05T11:39:02.047Z,49.25
2018-11-05T11:40:14.015Z,38.75
2018-11-05T11:41:18.920Z,46.73
2018-11-05T11:42:23.113Z,48.45
2018-11-05T11:43:27.217Z,42.27
2018-11-05T11:44:31.267Z,44.45
2018-11-05T11:45:35.470Z,43.92
2018-11-05T11:46:39.569Z,45.10
2018-11-05T11:47:43.777Z,43.13
2018-11-05T11:48:47.946Z,38.75
2018-11-05T11:49:52.090Z,41.68
2018-11-05T11:50:56.219Z,45.90
2018-11-05T11:52:00.248Z,42.80
2018-11-05T11:53:04.603Z,47.08
2018-11-05T11:54:08.687Z,44.15
2018-11-05T11:55:14.750Z,43.38
2018-11-05T11:56:18.897Z,43.08
2018-11-05T11:57:23.001Z,42.08
2018-11-05T11:58:27.135Z,43.23
2018-11-05T11:59:31.441Z,42.45
2018-11-05T12:00:35.766Z,42.88
2018-11-05T12:01:45.191Z,40.70
2018-11-05T12:02:50.005Z,44.60
2018-11-05T12:03:54.140Z,49.67
2018-11-05T12:04:58.225Z,41.48
2018-11-05T12:06:02.271Z,39.27
2018-11-05T12:07:07.055Z,38.02
2018-11-05T12:08:11.328Z,48.70
2018-11-05T12:09:15.889Z,45.38
2018-11-05T12:10:26.514Z,42.62
2018-11-05T12:11:30.814Z,45.75
2018-11-05T12:12:35.131Z,48.02
2018-11-05T12:13:39.291Z,52.17
2018-11-05T12:14:43.674Z,54.08
2018-11-05T12:15:47.690Z,49.38
2018-11-05T12:16:52.105Z,47.85
2018-11-05T12:17:56.410Z,47.85
2018-11-05T12:19:00.769Z,51.28
2018-11-05T12:20:05.203Z,47.38
2018-11-05T12:21:09.572Z,45.38
2018-11-05T12:22:13.812Z,43.85
2018-11-05T12:23:18.243Z,47.08
2018-11-05T12:24:22.497Z,47.40
2018-11-05T12:25:26.890Z,49.33
2018-11-05T12:26:31.295Z,50.00
2018-11-05T12:27:35.738Z,49.45
2018-11-05T12:28:40.124Z,46.77
2018-11-05T12:29:44.435Z,52.25
2018-11-05T12:30:49.035Z,53.52
2018-11-05T12:31:53.302Z,52.23
2018-11-05T12:32:57.542Z,51.08
2018-11-05T12:34:01.825Z,50.88
2018-11-05T12:35:06.874Z,48.17
2018-11-05T12:36:11.445Z,46.83
2018-11-05T12:37:15.699Z,43.52
2018-11-05T12:38:19.899Z,49.48
2018-11-05T12:39:24.119Z,51.23
2018-11-05T12:40:28.347Z,48.50
2018-11-05T12:41:32.718Z,48.00
2018-11-05T12:42:36.980Z,44.05
2018-11-05T12:43:41.235Z,45.58
2018-11-05T12:44:45.557Z,47.20
2018-11-05T12:45:49.802Z,51.28
2018-11-05T12:46:54.149Z,55.33
2018-11-05T12:47:59.732Z,44.58
2018-11-05T12:49:03.927Z,43.33
2018-11-05T12:50:14.338Z,49.80
2018-11-05T12:51:18.648Z,42.17
2018-11-05T12:52:22.998Z,42.83
2018-11-05T12:53:27.389Z,40.45
2018-11-05T12:54:31.570Z,43.92
2018-11-05T12:55:35.858Z,38.17
2018-11-05T12:56:40.113Z,41.77
2018-11-05T12:57:44.488Z,39.78
2018-11-05T12:58:48.896Z,40.80
2018-11-05T12:59:53.230Z,41.88
2018-11-05T13:00:57.638Z,41.13
2018-11-05T13:02:01.839Z,42.38
2018-11-05T13:03:06.351Z,42.15
2018-11-05T13:04:10.892Z,41.37
2018-11-05T13:05:17.953Z,43.83
2018-11-05T13:06:22.400Z,39.95
2018-11-05T13:07:26.806Z,39.92
2018-11-05T13:08:31.157Z,38.75
2018-11-05T13:09:35.612Z,41.80
2018-11-05T13:10:40.059Z,41.25
2018-11-05T13:11:44.346Z,43.45
2018-11-05T13:12:48.594Z,37.70
2018-11-05T13:13:52.872Z,42.15
2018-11-05T13:14:57.226Z,42.20
2018-11-05T13:16:01.489Z,41.45
2018-11-05T13:17:06.040Z,40.10
2018-11-05T13:18:10.321Z,45.55
2018-11-05T13:19:14.691Z,48.10
2018-11-05T13:20:20.218Z,42.55
2018-11-05T13:21:24.534Z,39.92
2018-11-05T13:22:28.992Z,39.20
2018-11-05T13:23:38.680Z,37.10
2018-11-05T13:24:43.247Z,42.23
2018-11-05T13:25:48.661Z,37.80
2018-11-05T13:26:53.047Z,42.20
2018-11-05T13:27:57.319Z,47.13
2018-11-05T13:29:01.570Z,44.38
2018-11-05T13:30:07.626Z,38.30
2018-11-05T13:31:11.968Z,41.40
2018-11-05T13:32:16.527Z,46.83
2018-11-05T13:33:20.935Z,45.83
2018-11-05T13:34:25.237Z,43.60
2018-11-05T13:35:29.657Z,43.28
2018-11-05T13:36:33.954Z,41.08
2018-11-05T13:37:38.780Z,44.13
2018-11-05T13:38:42.815Z,39.30
2018-11-05T13:39:46.944Z,43.20
2018-11-05T13:40:51.248Z,41.48
2018-11-05T13:41:55.547Z,44.80
2018-11-05T13:42:59.925Z,44.23
2018-11-05T13:44:04.223Z,43.45
2018-11-05T13:45:09.747Z,45.55